createdAt,value
2022-10-13T00:01:40.150Z,101342.16
2022-10-13T00:04:06.885Z,101343.91
2022-10-13T00:06:33.371Z,101346.53
2022-10-13T00:08:59.786Z,101338.69
2022-10-13T00:11:28.099Z,101336.94
2022-10-13T00:14:02.624Z,101335.22
2022-10-13T00:16:31.463Z,101341.31
2022-10-13T00:18:58.092Z,101333.44
2022-10-13T00:21:26.766Z,101330.84
2022-10-13T00:23:54.404Z,101335.19
2022-10-13T00:26:23.489Z,101330.84
2022-10-13T00:28:52.839Z,101323.88
2022-10-13T00:31:29.854Z,101318.66
2022-10-13T00:33:58.556Z,101328.22
2022-10-13T00:36:25.184Z,101331.72
2022-10-13T00:38:52.669Z,101320.38
2022-10-13T00:41:20.001Z,101327.34
2022-10-13T00:44:02.926Z,101326.50
2022-10-13T00:46:34.634Z,101326.50
2022-10-13T00:49:06.426Z,101326.47
2022-10-13T00:51:38.069Z,101316.03
2022-10-13T00:54:07.194Z,101312.53
2022-10-13T00:56:36.796Z,101306.44
2022-10-13T00:59:08.400Z,101312.53
2022-10-13T01:01:35.513Z,101314.25
2022-10-13T01:04:01.898Z,101309.03
2022-10-13T01:06:28.316Z,101306.41
2022-10-13T01:08:54.829Z,101305.56
2022-10-13T01:11:43.572Z,101302.94
2022-10-13T01:14:31.763Z,101293.34
2022-10-13T01:17:19.958Z,101295.97
2022-10-13T01:20:17.640Z,101283.78
2022-10-13T01:23:25.678Z,101284.66
2022-10-13T01:26:18.377Z,101281.13
2022-10-13T01:28:56.653Z,101284.63
2022-10-13T01:31:47.687Z,101281.13
2022-10-13T01:34:30.867Z,101278.50
2022-10-13T01:37:05.405Z,101279.38
2022-10-13T01:39:40.228Z,101278.50
2022-10-13T01:42:17.862Z,101275.03
2022-10-13T01:44:50.817Z,101267.19
2022-10-13T01:47:18.750Z,101266.34
2022-10-13T01:49:46.444Z,101263.72
2022-10-13T01:52:17.843Z,101263.72
2022-10-13T01:54:52.055Z,101267.19
2022-10-13T01:57:31.291Z,101259.34
2022-10-13T02:00:01.676Z,101257.59
2022-10-13T02:02:34.328Z,101265.41
2022-10-13T02:05:23.668Z,101262.78
2022-10-13T02:08:04.589Z,101264.53
2022-10-13T02:10:53.730Z,101247.97
2022-10-13T02:13:23.904Z,101253.19
2022-10-13T02:15:54.317Z,101250.53
2022-10-13T02:18:26.840Z,101245.34
2022-10-13T02:20:54.511Z,101254.91
2022-10-13T02:23:21.667Z,101251.41
2022-10-13T02:25:50.051Z,101252.28
2022-10-13T02:28:17.435Z,101261.00
2022-10-13T02:30:45.512Z,101254.88
2022-10-13T02:33:13.383Z,101246.16
2022-10-13T02:35:40.599Z,101244.44
2022-10-13T02:38:07.135Z,101254.03
2022-10-13T02:40:33.902Z,101256.63
2022-10-13T02:43:00.329Z,101253.16
2022-10-13T02:45:26.775Z,101253.16
2022-10-13T02:47:53.209Z,101245.31
2022-10-13T02:50:19.595Z,101250.53
2022-10-13T02:52:46.428Z,101256.63
2022-10-13T02:55:12.931Z,101244.44
2022-10-13T02:57:39.309Z,101242.69
2022-10-13T03:00:07.199Z,101254.00
2022-10-13T03:02:33.844Z,101244.41
2022-10-13T03:05:00.242Z,101242.69
2022-10-13T03:07:26.787Z,101241.78
2022-10-13T03:09:53.172Z,101246.13
2022-10-13T03:12:19.827Z,101233.94
2022-10-13T03:14:46.544Z,101233.06
2022-10-13T03:17:13.662Z,101231.31
2022-10-13T03:19:40.262Z,101226.06
2022-10-13T03:22:06.672Z,101227.84
2022-10-13T03:24:33.055Z,101218.22
2022-10-13T03:26:59.482Z,101220.84
2022-10-13T03:29:25.919Z,101220.84
2022-10-13T03:31:52.352Z,101214.75
2022-10-13T03:34:20.253Z,101219.97
2022-10-13T03:36:46.751Z,101209.53
2022-10-13T03:39:13.675Z,101209.47
2022-10-13T03:41:40.171Z,101206.84
2022-10-13T03:44:07.537Z,101208.63
2022-10-13T03:46:34.033Z,101201.66
2022-10-13T03:49:00.465Z,101191.19
2022-10-13T03:51:26.883Z,101200.81
2022-10-13T03:53:53.966Z,101192.09
2022-10-13T03:56:23.074Z,101189.47
2022-10-13T03:58:54.650Z,101190.34
2022-10-13T04:01:23.134Z,101189.50
2022-10-13T04:03:50.691Z,101195.59
2022-10-13T04:06:17.507Z,101189.50
2022-10-13T04:08:43.988Z,101186.00
2022-10-13T04:11:14.043Z,101184.25
2022-10-13T04:13:42.070Z,101179.03
2022-10-13T04:16:13.115Z,101187.75
2022-10-13T04:18:44.328Z,101185.13
2022-10-13T04:21:13.555Z,101183.34
2022-10-13T04:23:40.137Z,101189.47
2022-10-13T04:26:06.726Z,101179.88
2022-10-13T04:28:35.878Z,101180.72
2022-10-13T04:31:03.503Z,101176.38
2022-10-13T04:33:30.399Z,101179.81
2022-10-13T04:35:56.981Z,101172.84
2022-10-13T04:38:23.527Z,101166.78
2022-10-13T04:40:50.482Z,101175.44
2022-10-13T04:43:17.759Z,101173.69
2022-10-13T04:45:44.627Z,101161.44
2022-10-13T04:48:11.036Z,101169.28
2022-10-13T04:50:37.694Z,101173.69
2022-10-13T04:53:04.152Z,101169.31
2022-10-13T04:55:30.572Z,101163.19
2022-10-13T04:57:57.222Z,101158.84
2022-10-13T05:00:23.655Z,101154.47
2022-10-13T05:02:50.243Z,101152.72
2022-10-13T05:05:16.720Z,101164.94
2022-10-13T05:07:43.131Z,101156.22
2022-10-13T05:10:09.641Z,101150.13
2022-10-13T05:12:36.207Z,101154.47
2022-10-13T05:15:03.636Z,101161.44
2022-10-13T05:17:35.069Z,101163.22
2022-10-13T05:20:02.037Z,101155.38
2022-10-13T05:22:28.494Z,101152.72
2022-10-13T05:24:54.871Z,101157.03
2022-10-13T05:27:23.020Z,101156.16
2022-10-13T05:29:49.547Z,101157.03
2022-10-13T05:32:15.958Z,101154.41
2022-10-13T05:34:42.389Z,101157.91
2022-10-13T05:37:08.863Z,101156.16
2022-10-13T05:39:35.807Z,101146.56
2022-10-13T05:42:02.277Z,101145.69
2022-10-13T05:44:28.667Z,101150.03
2022-10-13T05:46:55.429Z,101136.13
2022-10-13T05:49:21.853Z,101135.25
2022-10-13T05:51:53.015Z,101139.59
2022-10-13T05:54:30.050Z,101139.59
2022-10-13T05:57:07.277Z,101143.09
2022-10-13T05:59:37.703Z,101136.06
2022-10-13T06:02:08.195Z,101132.59
2022-10-13T06:04:39.727Z,101131.69
2022-10-13T06:07:06.386Z,101135.22
2022-10-13T06:09:35.661Z,101129.13
2022-10-13T06:12:02.087Z,101131.72
2022-10-13T06:14:28.506Z,101116.94
2022-10-13T06:16:54.930Z,101115.22
2022-10-13T06:19:21.381Z,101113.44
2022-10-13T06:21:47.860Z,101109.13
2022-10-13T06:24:14.265Z,101114.34
2022-10-13T06:26:41.187Z,101118.69
2022-10-13T06:29:07.657Z,101102.13
2022-10-13T06:31:34.249Z,101114.34
2022-10-13T06:34:00.734Z,101118.69
2022-10-13T06:36:27.674Z,101110.81
2022-10-13T06:38:54.168Z,101123.03
2022-10-13T06:41:20.754Z,101136.97
2022-10-13T06:43:47.316Z,101137.84
2022-10-13T06:46:13.798Z,101135.22
2022-10-13T06:48:40.344Z,101121.28
2022-10-13T06:51:10.140Z,101107.28
2022-10-13T06:53:36.847Z,101127.31
2022-10-13T06:56:05.630Z,101116.84
2022-10-13T06:58:32.637Z,101109.88
2022-10-13T07:00:59.150Z,101113.31
2022-10-13T07:03:26.060Z,101117.66
2022-10-13T07:05:52.858Z,101117.63
2022-10-13T07:08:19.655Z,101116.72
2022-10-13T07:10:46.683Z,101124.59
2022-10-13T07:13:13.240Z,101118.41
2022-10-13T07:15:40.905Z,101131.47
2022-10-13T07:18:07.436Z,101116.63
2022-10-13T07:20:34.343Z,101118.34
2022-10-13T07:23:01.225Z,101113.94
2022-10-13T07:25:27.654Z,101118.25
2022-10-13T07:27:54.039Z,101123.41
2022-10-13T07:30:20.519Z,101113.81
2022-10-13T07:32:47.641Z,101119.88
2022-10-13T07:35:14.411Z,101126.75
2022-10-13T07:37:40.820Z,101112.75
2022-10-13T07:40:07.815Z,101107.50
2022-10-13T07:42:34.524Z,101101.31
2022-10-13T07:45:00.976Z,101100.38
2022-10-13T07:47:28.403Z,101107.25
2022-10-13T07:49:55.707Z,101103.72
2022-10-13T07:52:23.014Z,101110.56
2022-10-13T07:54:50.713Z,101110.53
2022-10-13T07:57:17.365Z,101113.03
2022-10-13T07:59:43.860Z,101114.69
2022-10-13T08:02:10.411Z,101120.66
2022-10-13T08:04:37.538Z,101114.44
2022-10-13T08:07:05.858Z,101118.66
2022-10-13T08:09:32.997Z,101122.88
2022-10-13T08:12:00.736Z,101114.81
2022-10-13T08:14:28.883Z,101111.19
2022-10-13T08:16:56.014Z,101109.34
2022-10-13T08:19:22.855Z,101112.69
2022-10-13T08:21:58.145Z,101110.00
2022-10-13T08:24:26.900Z,101111.59
2022-10-13T08:26:53.442Z,101111.56
2022-10-13T08:29:23.026Z,101110.72
2022-10-13T08:31:52.602Z,101121.28
2022-10-13T08:34:19.845Z,101125.69
2022-10-13T08:36:47.262Z,101130.91
2022-10-13T08:39:14.029Z,101128.34
2022-10-13T08:41:46.313Z,101122.16
2022-10-13T08:47:46.962Z,101123.84
2022-10-13T08:50:18.153Z,101118.56
2022-10-13T08:52:58.403Z,101101.13
2022-10-13T08:55:33.741Z,101105.56
2022-10-13T08:58:02.469Z,101102.97
2022-10-13T09:00:30.364Z,101108.22
2022-10-13T09:03:15.928Z,101109.00
2022-10-13T09:05:56.500Z,101098.31
2022-10-13T09:08:25.084Z,101099.09
2022-10-13T09:10:51.931Z,101104.34
2022-10-13T09:13:19.672Z,101103.44
2022-10-13T09:15:50.244Z,101098.88
2022-10-13T09:18:16.912Z,101107.53
2022-10-13T09:20:43.382Z,101098.72
2022-10-13T09:23:20.242Z,101103.03
2022-10-13T09:25:49.432Z,101109.94
2022-10-13T09:28:36.148Z,101101.97
2022-10-13T09:31:28.166Z,101098.47
2022-10-13T09:34:03.327Z,101098.47
2022-10-13T09:36:31.242Z,101085.44
2022-10-13T09:39:06.839Z,101089.81
2022-10-13T09:41:33.691Z,101095.00
2022-10-13T09:44:08.769Z,101092.16
2022-10-13T09:46:55.279Z,101097.38
2022-10-13T09:49:39.230Z,101093.75
2022-10-13T09:52:11.846Z,101090.22
2022-10-13T09:55:32.437Z,101084.00
2022-10-13T09:58:22.839Z,101078.25
2022-10-13T10:00:51.437Z,101072.59
2022-10-13T10:03:22.349Z,101073.41
2022-10-13T10:05:55.729Z,101075.13
2022-10-13T10:09:04.666Z,101059.03
2022-10-13T10:11:42.269Z,101054.38
2022-10-13T10:14:25.342Z,101048.28
2022-10-13T10:17:23.509Z,101042.66
2022-10-13T10:19:59.190Z,101048.78
2022-10-13T10:22:31.059Z,101049.69
2022-10-13T10:25:12.716Z,101045.34
2022-10-13T10:27:56.110Z,101051.22
2022-10-13T10:30:22.562Z,101047.53
2022-10-13T10:33:04.270Z,101040.41
2022-10-13T10:35:48.952Z,101034.84
2022-10-13T10:38:44.615Z,101034.66
2022-10-13T10:41:30.096Z,101032.94
2022-10-13T10:43:56.462Z,101028.56
2022-10-13T10:46:31.132Z,101023.97
2022-10-13T10:49:02.600Z,101037.75
2022-10-13T10:51:36.691Z,101030.22
2022-10-13T10:54:49.616Z,101025.28
2022-10-13T10:57:21.793Z,101017.84
2022-10-13T10:59:51.225Z,101014.28
2022-10-13T11:02:32.686Z,101003.75
2022-10-13T11:05:05.234Z,101006.22
2022-10-13T11:07:32.855Z,101008.78
2022-10-13T11:09:59.320Z,100999.97
2022-10-13T11:12:47.361Z,100999.97
2022-10-13T11:15:22.248Z,101000.91
2022-10-13T11:17:48.687Z,101001.88
2022-10-13T11:20:20.754Z,100994.06
2022-10-13T11:22:59.191Z,100995.84
2022-10-13T11:25:45.681Z,101000.31
2022-10-13T11:28:21.491Z,100993.56
2022-10-13T11:30:55.240Z,101005.31
2022-10-13T11:33:39.972Z,100991.38
2022-10-13T11:36:28.058Z,100994.88
2022-10-13T11:39:17.808Z,100996.66
2022-10-13T11:41:58.283Z,100996.81
2022-10-13T11:44:47.954Z,100992.50
2022-10-13T11:47:49.689Z,100992.50
2022-10-13T11:50:44.194Z,100983.91
2022-10-13T11:53:14.498Z,100986.53
2022-10-13T11:55:51.814Z,100991.88
2022-10-13T11:58:21.648Z,100974.31
2022-10-13T12:00:56.718Z,100977.84
2022-10-13T12:03:35.283Z,100984.84
2022-10-13T12:06:18.327Z,100986.72
2022-10-13T12:08:51.326Z,100978.84
2022-10-13T12:11:29.729Z,100990.31
2022-10-13T12:13:56.506Z,100982.41
2022-10-13T12:16:23.045Z,100984.03
2022-10-13T12:18:49.647Z,100990.25
2022-10-13T12:21:20.524Z,100984.13
2022-10-13T12:23:51.531Z,100990.41
2022-10-13T12:26:20.667Z,100981.69
2022-10-13T12:28:55.310Z,100978.31
2022-10-13T12:31:23.306Z,100985.41
2022-10-13T12:34:01.393Z,100976.69
2022-10-13T12:36:31.147Z,100974.19
2022-10-13T12:39:13.076Z,100974.19
2022-10-13T12:41:45.571Z,100978.53
2022-10-13T12:44:20.136Z,100980.28
2022-10-13T12:46:52.242Z,100977.66
2022-10-13T12:49:30.755Z,100970.56
2022-10-13T12:52:15.696Z,100967.59
2022-10-13T12:54:54.810Z,100974.31
2022-10-13T12:57:38.330Z,100967.88
2022-10-13T13:00:20.354Z,100964.06
2022-10-13T13:02:51.315Z,100957.03
2022-10-13T13:05:32.775Z,100965.63
2022-10-13T13:07:59.683Z,100960.34
2022-10-13T13:10:26.727Z,100965.63
2022-10-13T13:12:54.989Z,100956.22
2022-10-13T13:15:24.390Z,100955.47
2022-10-13T13:17:59.440Z,100954.78
2022-10-13T13:20:34.755Z,100955.88
2022-10-13T13:23:01.581Z,100941.84
2022-10-13T13:25:28.090Z,100943.63
2022-10-13T13:27:54.750Z,100948.81
2022-10-13T13:30:22.864Z,100948.59
2022-10-13T13:32:49.606Z,100936.91
2022-10-13T13:35:16.434Z,100941.16
2022-10-13T13:37:47.776Z,100934.00
2022-10-13T13:40:17.066Z,100930.34
2022-10-13T13:42:43.640Z,100932.00
2022-10-13T13:45:14.788Z,100929.50
2022-10-13T13:47:41.335Z,100924.28
2022-10-13T13:50:17.092Z,100933.91
2022-10-13T13:52:43.588Z,100931.38
2022-10-13T13:55:10.078Z,100930.53
2022-10-13T13:57:36.484Z,100925.25
2022-10-13T14:00:04.811Z,100931.59
2022-10-13T14:02:31.273Z,100928.22
2022-10-13T14:04:57.669Z,100923.97
2022-10-13T14:07:24.089Z,100927.41
2022-10-13T14:09:50.523Z,100922.28
2022-10-13T14:12:16.973Z,100917.97
2022-10-13T14:14:43.406Z,100922.56
2022-10-13T14:17:10.547Z,100927.09
2022-10-13T14:19:36.959Z,100924.59
2022-10-13T14:22:09.184Z,100922.81
2022-10-13T14:24:35.963Z,100916.75
2022-10-13T14:27:02.400Z,100915.94
2022-10-13T14:29:29.505Z,100916.81
2022-10-13T14:31:55.912Z,100907.22
2022-10-13T14:34:22.387Z,100913.34
2022-10-13T14:36:48.817Z,100910.69
2022-10-13T14:39:15.276Z,100914.13
2022-10-13T14:41:41.830Z,100912.50
2022-10-13T14:44:13.712Z,100906.38
2022-10-13T14:46:40.937Z,100914.28
2022-10-13T14:49:07.513Z,100913.34
2022-10-13T14:51:33.940Z,100906.22
2022-10-13T14:54:01.756Z,100898.16
2022-10-13T14:56:30.237Z,100896.28
2022-10-13T14:59:05.583Z,100900.78
2022-10-13T15:01:33.415Z,100892.03
2022-10-13T15:04:01.155Z,100886.69
2022-10-13T15:06:27.629Z,100887.38
2022-10-13T15:08:54.736Z,100880.47
2022-10-13T15:11:21.699Z,100882.13
2022-10-13T15:13:48.200Z,100882.06
2022-10-13T15:16:23.088Z,100881.09
2022-10-13T15:18:50.047Z,100881.28
2022-10-13T15:21:16.933Z,100877.94
2022-10-13T15:23:44.355Z,100879.63
2022-10-13T15:26:12.716Z,100874.44
2022-10-13T15:28:44.901Z,100871.88
2022-10-13T15:31:12.656Z,100870.16
2022-10-13T15:33:42.351Z,100876.41
2022-10-13T15:36:08.847Z,100873.00
2022-10-13T15:38:35.492Z,100868.63
2022-10-13T15:41:04.432Z,100863.34
2022-10-13T15:43:31.473Z,100868.72
2022-10-13T15:46:04.409Z,100868.69
2022-10-13T15:48:31.498Z,100867.91
2022-10-13T15:50:57.963Z,100866.25
2022-10-13T15:53:24.916Z,100858.31
2022-10-13T15:55:51.393Z,100859.22
2022-10-13T15:58:18.464Z,100860.97
2022-10-13T16:00:45.569Z,100851.34
2022-10-13T16:03:15.296Z,100841.81
2022-10-13T16:05:43.046Z,100852.41
2022-10-13T16:08:09.607Z,100851.38
2022-10-13T16:10:40.203Z,100841.88
2022-10-13T16:13:06.986Z,100844.50
2022-10-13T16:15:33.482Z,100840.16
2022-10-13T16:17:59.897Z,100836.72
2022-10-13T16:20:26.446Z,100836.78
2022-10-13T16:22:53.638Z,100836.84
2022-10-13T16:25:20.032Z,100839.47
2022-10-13T16:27:46.476Z,100825.56
2022-10-13T16:30:13.268Z,100836.94
2022-10-13T16:32:40.011Z,100830.84
2022-10-13T16:35:07.186Z,100843.97
2022-10-13T16:37:33.831Z,100837.09
2022-10-13T16:40:00.243Z,100838.06
2022-10-13T16:42:26.725Z,100840.72
2022-10-13T16:44:53.175Z,100842.47
2022-10-13T16:47:19.930Z,100856.50
2022-10-13T16:49:47.155Z,100851.22
2022-10-13T16:52:13.608Z,100852.25
2022-10-13T16:54:40.014Z,100861.00
2022-10-13T16:57:06.508Z,100862.81
2022-10-13T16:59:32.940Z,100857.56
2022-10-13T17:01:59.550Z,100856.75
2022-10-13T17:04:26.027Z,100860.25
2022-10-13T17:06:52.438Z,100865.50
2022-10-13T17:09:18.856Z,100866.41
2022-10-13T17:11:45.417Z,100868.19
2022-10-13T17:14:11.909Z,100876.94
2022-10-13T17:16:38.489Z,100877.91
2022-10-13T17:19:04.983Z,100871.72
2022-10-13T17:21:31.411Z,100875.22
2022-10-13T17:23:57.918Z,100870.00
2022-10-13T17:26:24.435Z,100870.06
2022-10-13T17:28:51.228Z,100878.84
2022-10-13T17:31:20.576Z,100884.97
2022-10-13T17:33:47.825Z,100873.56
2022-10-13T17:36:19.720Z,100886.78
2022-10-13T17:38:48.047Z,100887.72
2022-10-13T17:41:14.769Z,100885.94
2022-10-13T17:43:41.631Z,100890.31
2022-10-13T17:46:37.011Z,100894.69
2022-10-13T17:49:03.109Z,100889.53
2022-10-13T17:51:29.592Z,100893.06
2022-10-13T17:53:58.797Z,100895.75
2022-10-13T17:56:26.020Z,100900.97
2022-10-13T17:58:53.047Z,100902.78
2022-10-13T18:01:22.288Z,100899.28
2022-10-13T18:03:51.190Z,100898.44
2022-10-13T18:06:19.832Z,100893.22
2022-10-13T18:08:46.579Z,100894.19
2022-10-13T18:11:15.624Z,100892.38
2022-10-13T18:13:43.203Z,100893.31
2022-10-13T18:16:15.588Z,100900.34
2022-10-13T18:18:44.292Z,100895.97
2022-10-13T18:21:13.348Z,100894.22
2022-10-13T18:23:40.948Z,100890.78
2022-10-13T18:26:13.386Z,100893.44
2022-10-13T18:28:41.055Z,100893.44
2022-10-13T18:31:10.986Z,100900.47
2022-10-13T18:33:37.735Z,100897.88
2022-10-13T18:36:19.992Z,100889.16
2022-10-13T18:38:47.489Z,100892.69
2022-10-13T18:41:15.087Z,100897.97
2022-10-13T18:43:41.864Z,100890.97
2022-10-13T18:46:08.542Z,100901.47
2022-10-13T18:48:34.954Z,100892.72
2022-10-13T18:51:07.123Z,100905.03
2022-10-13T18:53:38.425Z,100894.50
2022-10-13T18:56:09.383Z,100892.78
2022-10-13T18:58:35.878Z,100901.53
2022-10-13T19:01:05.047Z,100896.28
2022-10-13T19:03:32.963Z,100892.81
2022-10-13T19:05:59.547Z,100896.31
2022-10-13T19:08:26.563Z,100902.44
2022-10-13T19:10:52.980Z,100913.91
2022-10-13T19:13:19.432Z,100917.47
2022-10-13T19:15:46.048Z,100914.00
2022-10-13T19:18:13.126Z,100920.16
2022-10-13T19:20:39.762Z,100923.66
2022-10-13T19:23:06.792Z,100918.41
2022-10-13T19:25:33.347Z,100909.69
2022-10-13T19:27:59.758Z,100917.69
2022-10-13T19:30:26.898Z,100919.59
2022-10-13T19:32:54.049Z,100912.59
2022-10-13T19:35:20.458Z,100917.00
2022-10-13T19:37:47.257Z,100927.56
2022-10-13T19:40:13.786Z,100917.91
2022-10-13T19:42:40.209Z,100921.44
2022-10-13T19:45:07.110Z,100924.03
2022-10-13T19:47:33.529Z,100912.78
2022-10-13T19:50:00.007Z,100923.38
2022-10-13T19:52:26.590Z,100923.38
2022-10-13T19:54:53.173Z,100926.06
2022-10-13T19:57:19.937Z,100923.44
2022-10-13T19:59:47.876Z,100926.06
2022-10-13T20:02:14.702Z,100925.16
2022-10-13T20:04:41.237Z,100919.91
2022-10-13T20:07:07.643Z,100933.94
2022-10-13T20:09:34.618Z,100926.13
2022-10-13T20:12:01.067Z,100933.09
2022-10-13T20:14:27.452Z,100930.50
2022-10-13T20:16:56.428Z,100938.38
2022-10-13T20:19:22.831Z,100935.84
2022-10-13T20:21:52.428Z,100935.84
2022-10-13T20:24:21.577Z,100937.63
2022-10-13T20:26:47.993Z,100931.50
2022-10-13T20:29:15.415Z,100934.94
2022-10-13T20:31:43.964Z,100932.38
2022-10-13T20:34:11.313Z,100935.03
2022-10-13T20:36:39.270Z,100934.13
2022-10-13T20:39:06.596Z,100938.47
2022-10-13T20:41:33.162Z,100936.75
2022-10-13T20:44:00.962Z,100941.09
2022-10-13T20:46:27.543Z,100931.44
2022-10-13T20:49:11.337Z,100936.72
2022-10-13T20:51:39.348Z,100942.00
2022-10-13T20:54:06.098Z,100942.00
2022-10-13T20:56:32.971Z,100938.66
2022-10-13T20:59:05.761Z,100943.97
2022-10-13T21:01:33.000Z,100943.00
2022-10-13T21:03:59.475Z,100947.41
2022-10-13T21:06:27.060Z,100948.28
2022-10-13T21:08:53.947Z,100941.31
2022-10-13T21:11:23.147Z,100944.81
2022-10-13T21:13:51.083Z,100940.41
2022-10-13T21:16:27.426Z,100936.88
2022-10-13T21:18:55.625Z,100940.47
2022-10-13T21:21:27.972Z,100941.28
2022-10-13T21:23:57.364Z,100934.25
2022-10-13T21:26:25.626Z,100941.25
2022-10-13T21:28:52.265Z,100936.06
2022-10-13T21:31:20.638Z,100938.69
2022-10-13T21:33:47.729Z,100931.69
2022-10-13T21:36:29.827Z,100936.13
2022-10-13T21:39:02.327Z,100937.03
2022-10-13T21:41:29.293Z,100930.81
2022-10-13T21:43:56.069Z,100934.31
2022-10-13T21:46:28.472Z,100936.13
2022-10-13T21:48:57.818Z,100940.47
2022-10-13T21:51:39.317Z,100936.97
2022-10-13T21:54:08.788Z,100939.59
2022-10-13T21:56:36.153Z,100935.28
2022-10-13T21:59:03.505Z,100928.28
2022-10-13T22:01:32.783Z,100932.63
2022-10-13T22:04:01.137Z,100933.50
2022-10-13T22:06:29.153Z,100940.50
2022-10-13T22:08:58.093Z,100937.03
2022-10-13T22:11:26.992Z,100936.16
2022-10-13T22:13:53.471Z,100934.31
2022-10-13T22:16:23.024Z,100939.56
2022-10-13T22:18:54.079Z,100929.09
2022-10-13T22:21:24.077Z,100928.25
2022-10-13T22:23:50.654Z,100929.09
2022-10-13T22:26:18.599Z,100935.22
2022-10-13T22:28:45.120Z,100926.44
2022-10-13T22:31:13.093Z,100925.56
2022-10-13T22:33:41.355Z,100929.03
2022-10-13T22:36:16.305Z,100919.41
2022-10-13T22:38:43.601Z,100921.13
2022-10-13T22:41:10.153Z,100920.25
2022-10-13T22:43:37.022Z,100919.34
2022-10-13T22:46:03.989Z,100920.25
2022-10-13T22:48:30.396Z,100911.56
2022-10-13T22:50:56.818Z,100916.81
2022-10-13T22:53:23.226Z,100917.63
2022-10-13T22:55:49.709Z,100921.13
2022-10-13T22:58:16.123Z,100920.25
2022-10-13T23:00:42.536Z,100922.88
2022-10-13T23:03:13.482Z,100919.41
2022-10-13T23:05:46.792Z,100912.38
2022-10-13T23:08:13.550Z,100920.25
2022-10-13T23:10:39.987Z,100908.84
2022-10-13T23:13:06.428Z,100906.28
2022-10-13T23:15:32.865Z,100908.91
2022-10-13T23:17:59.319Z,100912.38
2022-10-13T23:20:25.763Z,100909.75
2022-10-13T23:22:52.156Z,100908.00
2022-10-13T23:25:18.581Z,100901.88
2022-10-13T23:27:44.992Z,100905.38
2022-10-13T23:30:12.132Z,100899.25
2022-10-13T23:32:38.619Z,100899.25
2022-10-13T23:35:05.393Z,100899.25
2022-10-13T23:37:31.945Z,100884.41
2022-10-13T23:39:58.385Z,100887.91
2022-10-13T23:42:24.860Z,100887.03
2022-10-13T23:44:51.269Z,100882.69
2022-10-13T23:47:17.742Z,100879.16
2022-10-13T23:49:44.171Z,100878.28
2022-10-13T23:52:11.987Z,100876.56
2022-10-13T23:54:39.038Z,100876.56
2022-10-13T23:57:05.419Z,100882.69
2022-10-13T23:59:32.052Z,100876.56
